Time;durP1;ratioP1;P1;durP2;ratioP2;P2;SDS_P1;SDS_P2;PMS_P1;PMS_P2;Temp;Humidity;BMP_temperature;BMP_pressure;BME280_temperature;BME280_humidity;BME280_pressure;Samples;Min_cycle;Max_cycle;Signal;HPM_P1;HPM_P2
2021/01/17 00:00:52;;;;;;;24.48;10.75;;;-3.60;99.90;;;;;;5025340;28;20065;-78
2021/01/17 00:03:19;;;;;;;28.73;11.25;;;-3.60;99.90;;;;;;5012462;28;20053;-78
2021/01/17 00:05:47;;;;;;;19.98;8.38;;;-3.50;99.90;;;;;;5020092;28;20065;-78
2021/01/17 00:08:18;;;;;;;24.08;10.05;;;-3.50;99.90;;;;;;5034252;28;20077;-78
2021/01/17 00:10:45;;;;;;;19.30;7.47;;;-3.40;99.90;;;;;;5032522;28;20076;-78
2021/01/17 00:13:13;;;;;;;24.75;10.18;;;-3.40;99.90;;;;;;5012866;28;20054;-78
2021/01/17 00:15:40;;;;;;;27.15;10.32;;;-3.40;99.90;;;;;;5003652;28;20062;-78
2021/01/17 00:18:07;;;;;;;34.92;12.43;;;-3.40;99.90;;;;;;5033477;28;20112;-78
2021/01/17 00:20:34;;;;;;;38.85;15.30;;;-3.30;99.90;;;;;;5009927;28;20037;-78
2021/01/17 00:23:05;;;;;;;33.00;15.02;;;-3.40;99.90;;;;;;5008968;28;20486;-78
2021/01/17 00:25:33;;;;;;;30.52;12.50;;;-3.40;99.90;;;;;;5033608;28;20072;-78
2021/01/17 00:28:01;;;;;;;28.10;12.50;;;-3.30;99.90;;;;;;5034831;28;20053;-78
2021/01/17 00:30:33;;;;;;;30.00;12.32;;;-3.40;99.90;;;;;;5013092;28;20057;-78
2021/01/17 00:33:02;;;;;;;29.83;12.15;;;-3.40;99.90;;;;;;5007354;28;20073;-78
2021/01/17 00:35:31;;;;;;;43.03;16.80;;;-3.40;99.90;;;;;;5034139;28;20052;-78
2021/01/17 00:38:01;;;;;;;33.35;14.52;;;-3.40;99.90;;;;;;5034305;28;20061;-78
2021/01/17 00:40:28;;;;;;;29.63;13.90;;;-3.40;99.90;;;;;;5035355;28;20045;-78
2021/01/17 00:42:55;;;;;;;32.78;13.23;;;-3.40;99.90;;;;;;5016745;28;20049;-78
2021/01/17 00:45:25;;;;;;;27.67;13.18;;;-3.40;99.90;;;;;;5008733;28;20546;-78
2021/01/17 00:47:52;;;;;;;33.33;16.15;;;-3.30;99.90;;;;;;5011169;28;20227;-78
2021/01/17 00:50:22;;;;;;;29.80;16.20;;;-3.30;99.90;;;;;;5017010;28;20053;-78
2021/01/17 00:52:53;;;;;;;34.60;16.15;;;-3.30;99.90;;;;;;5022518;28;20069;-78
2021/01/17 00:55:20;;;;;;;29.90;14.88;;;-3.30;99.90;;;;;;5032105;28;20051;-78
2021/01/17 00:57:47;;;;;;;32.25;15.95;;;-3.30;99.90;;;;;;5003936;28;20046;-78
2021/01/17 01:00:16;;;;;;;46.38;19.35;;;-3.40;99.90;;;;;;5029351;28;20049;-78
2021/01/17 01:02:42;;;;;;;56.83;22.63;;;-3.40;99.90;;;;;;5032317;28;20518;-78
2021/01/17 01:05:13;;;;;;;61.22;24.58;;;-3.50;99.90;;;;;;5025316;28;20085;-78
2021/01/17 01:07:42;;;;;;;49.30;19.48;;;-3.40;99.90;;;;;;5006035;28;20391;-78
2021/01/17 01:10:10;;;;;;;31.60;15.90;;;-3.40;99.90;;;;;;5035663;28;20060;-78
2021/01/17 01:12:37;;;;;;;42.78;18.80;;;-3.30;99.90;;;;;;5033681;28;20049;-78
2021/01/17 01:15:05;;;;;;;39.72;17.35;;;-3.40;99.90;;;;;;5017331;28;20447;-78
2021/01/17 01:17:32;;;;;;;48.33;19.30;;;-3.40;99.90;;;;;;5014208;28;20052;-78
2021/01/17 01:19:59;;;;;;;37.53;16.25;;;-3.50;99.90;;;;;;5015179;28;20049;-78
2021/01/17 01:22:25;;;;;;;32.72;14.35;;;-3.50;99.90;;;;;;5008399;28;20061;-78
2021/01/17 01:24:52;;;;;;;27.83;14.02;;;-3.50;99.90;;;;;;5028033;28;20057;-78
2021/01/17 01:27:19;;;;;;;39.10;16.67;;;-3.60;99.90;;;;;;5031734;28;20058;-78
2021/01/17 01:29:45;;;;;;;27.38;11.50;;;-3.60;99.90;;;;;;5030695;28;20148;-78
2021/01/17 01:32:14;;;;;;;30.08;13.07;;;-3.40;99.90;;;;;;5017156;28;20097;-78
2021/01/17 01:34:41;;;;;;;27.05;12.50;;;-3.40;99.90;;;;;;5012840;28;20068;-78
2021/01/17 01:37:08;;;;;;;26.65;11.88;;;-3.50;99.90;;;;;;5005516;28;20049;-78
2021/01/17 01:39:35;;;;;;;27.83;11.30;;;-3.70;99.90;;;;;;5033468;28;20056;-78
2021/01/17 01:42:05;;;;;;;24.13;10.57;;;-3.70;99.90;;;;;;5015805;28;20045;-78
2021/01/17 01:44:32;;;;;;;18.20;7.97;;;-3.90;99.90;;;;;;5003394;28;20111;-78
2021/01/17 01:47:00;;;;;;;21.80;9.52;;;-3.90;99.90;;;;;;5027441;28;20509;-78
2021/01/17 01:49:27;;;;;;;16.42;7.88;;;-4.00;99.90;;;;;;5022832;28;20080;-78
2021/01/17 01:51:56;;;;;;;20.45;9.15;;;-4.00;99.90;;;;;;5032805;28;20060;-78
2021/01/17 01:54:23;;;;;;;18.45;7.93;;;-4.10;99.90;;;;;;5010802;28;20055;-78
2021/01/17 01:56:53;;;;;;;23.48;9.32;;;-4.00;99.90;;;;;;5008281;28;20458;-78
2021/01/17 01:59:21;;;;;;;17.83;8.80;;;-4.00;99.90;;;;;;5024126;28;20061;-78
2021/01/17 02:01:53;;;;;;;22.05;9.07;;;-3.90;99.90;;;;;;5024579;28;20053;-78
2021/01/17 02:04:20;;;;;;;19.20;9.15;;;-3.80;99.90;;;;;;5031895;28;20057;-78
2021/01/17 02:07:13;;;;;;;17.85;6.70;;;-3.80;99.90;;;;;;5015314;28;20049;-78
2021/01/17 02:09:44;;;;;;;19.52;8.02;;;-3.70;99.90;;;;;;5011689;28;20053;-78
2021/01/17 02:12:37;;;;;;;20.63;8.20;;;-3.70;99.90;;;;;;5034900;28;20133;-78
2021/01/17 02:15:09;;;;;;;19.23;7.40;;;-3.70;99.90;;;;;;5023998;28;20056;-78
2021/01/17 02:17:36;;;;;;;20.63;8.23;;;-3.60;99.90;;;;;;5011859;28;20045;-78
2021/01/17 02:20:10;;;;;;;23.88;9.00;;;-3.70;99.90;;;;;;5014139;28;20041;-78
2021/01/17 02:22:59;;;;;;;16.48;8.77;;;-3.50;99.90;;;;;;5011996;28;20069;-78
2021/01/17 02:25:31;;;;;;;19.33;9.57;;;-3.50;99.90;;;;;;5027908;28;20053;-78
2021/01/17 02:27:59;;;;;;;18.08;8.85;;;-3.60;99.90;;;;;;5024326;28;20402;-78
2021/01/17 02:30:29;;;;;;;22.73;10.05;;;-3.50;99.90;;;;;;5033525;28;20061;-78
2021/01/17 02:33:04;;;;;;;20.65;10.15;;;-3.50;99.90;;;;;;5014996;28;20041;-78
2021/01/17 02:35:34;;;;;;;23.38;12.00;;;-3.50;99.90;;;;;;5033168;28;20050;-78
2021/01/17 02:38:09;;;;;;;26.92;12.02;;;-3.50;99.90;;;;;;5032434;28;20053;-78
2021/01/17 02:40:42;;;;;;;22.73;9.63;;;-3.50;99.90;;;;;;5033460;28;20057;-78
2021/01/17 02:43:10;;;;;;;21.45;11.18;;;-3.50;99.90;;;;;;5031447;28;20084;-78
2021/01/17 02:45:36;;;;;;;20.85;9.43;;;-3.50;99.90;;;;;;5031368;28;20050;-78
2021/01/17 02:48:04;;;;;;;23.17;10.48;;;-3.50;99.90;;;;;;5009170;28;20068;-78
2021/01/17 02:50:30;;;;;;;25.42;11.23;;;-3.50;99.90;;;;;;5023969;28;20053;-78
2021/01/17 02:53:26;;;;;;;20.98;9.80;;;-3.50;99.90;;;;;;5030506;28;20050;-78
2021/01/17 02:55:55;;;;;;;24.23;11.15;;;-3.50;99.90;;;;;;5030339;28;20060;-78
2021/01/17 02:58:24;;;;;;;40.78;16.25;;;-3.40;99.90;;;;;;5015014;28;20050;-78
2021/01/17 03:00:55;;;;;;;38.78;17.23;;;-3.40;99.90;;;;;;5030772;28;20475;-77
2021/01/17 03:03:37;;;;;;;31.77;13.68;;;-3.50;99.90;;;;;;5021419;28;20057;-78
2021/01/17 03:06:07;;;;;;;26.63;12.50;;;-3.50;99.90;;;;;;5025588;28;20467;-78
2021/01/17 03:08:37;;;;;;;14.70;7.53;;;-3.40;99.90;;;;;;5028970;28;20051;-78
2021/01/17 03:11:08;;;;;;;16.08;6.70;;;-3.50;99.90;;;;;;5031404;28;20053;-78
2021/01/17 03:13:37;;;;;;;14.65;7.03;;;-3.60;99.90;;;;;;5028626;28;20083;-78
2021/01/17 03:16:05;;;;;;;21.20;7.38;;;-3.70;99.90;;;;;;5015568;28;20052;-78
2021/01/17 03:18:32;;;;;;;19.63;8.50;;;-3.70;99.90;;;;;;5031361;28;20140;-78
2021/01/17 03:20:59;;;;;;;10.90;6.13;;;-3.80;99.90;;;;;;5019251;28;20041;-78
2021/01/17 03:23:26;;;;;;;17.27;6.25;;;-3.70;99.90;;;;;;5004398;28;20057;-78
2021/01/17 03:25:53;;;;;;;16.45;6.38;;;-3.80;99.90;;;;;;5032041;28;20066;-78
2021/01/17 03:28:19;;;;;;;12.77;5.63;;;-3.80;99.90;;;;;;5024079;28;20459;-78
2021/01/17 03:30:46;;;;;;;18.13;6.95;;;-3.80;99.90;;;;;;5015427;28;20064;-78
2021/01/17 03:33:12;;;;;;;11.63;5.43;;;-3.80;99.90;;;;;;5033008;28;20053;-78
2021/01/17 03:35:39;;;;;;;12.90;4.68;;;-3.80;99.90;;;;;;5018865;28;20046;-78
2021/01/17 03:38:05;;;;;;;16.75;6.10;;;-3.70;99.90;;;;;;5018220;28;20049;-78
2021/01/17 03:40:32;;;;;;;16.20;7.82;;;-3.80;99.90;;;;;;5031969;28;20483;-78
2021/01/17 03:42:58;;;;;;;17.67;7.18;;;-3.90;99.90;;;;;;5015370;28;20045;-78
2021/01/17 03:45:25;;;;;;;12.68;6.95;;;-3.80;99.90;;;;;;5017169;28;20045;-78
2021/01/17 03:47:51;;;;;;;18.60;8.82;;;-3.80;99.90;;;;;;5015476;28;20403;-78
2021/01/17 03:50:18;;;;;;;19.95;8.10;;;-3.70;99.90;;;;;;5022346;28;20072;-78
2021/01/17 03:52:44;;;;;;;18.10;8.57;;;-3.80;99.90;;;;;;5011483;28;20050;-78
2021/01/17 03:55:11;;;;;;;22.05;9.15;;;-3.80;99.90;;;;;;5017512;28;20053;-78
2021/01/17 03:57:37;;;;;;;21.48;7.55;;;-3.70;99.90;;;;;;5035294;28;20056;-78
2021/01/17 04:00:06;;;;;;;17.25;8.85;;;-3.70;99.90;;;;;;5037235;28;20141;-78
2021/01/17 04:02:33;;;;;;;15.68;7.60;;;-3.70;99.90;;;;;;5018385;28;20086;-78
2021/01/17 04:05:00;;;;;;;18.10;7.88;;;-3.70;99.90;;;;;;5031743;28;20443;-78
2021/01/17 04:07:28;;;;;;;19.90;9.20;;;-3.60;99.90;;;;;;5012954;28;20387;-78
2021/01/17 04:09:55;;;;;;;16.52;7.95;;;-3.60;99.90;;;;;;5036329;28;20406;-78
2021/01/17 04:12:21;;;;;;;18.95;9.65;;;-3.60;99.90;;;;;;5035119;28;20057;-78
2021/01/17 04:14:48;;;;;;;22.55;9.32;;;-3.70;99.90;;;;;;5035851;28;20057;-78
2021/01/17 04:17:14;;;;;;;16.10;8.20;;;-3.70;99.90;;;;;;5019931;28;20083;-78
2021/01/17 04:19:41;;;;;;;16.85;8.80;;;-3.60;99.90;;;;;;5013261;28;20058;-78
2021/01/17 04:22:08;;;;;;;15.02;8.18;;;-3.60;99.90;;;;;;5014668;28;20045;-78
2021/01/17 04:24:35;;;;;;;21.08;9.25;;;-3.60;99.90;;;;;;5021172;28;20502;-78
2021/01/17 04:27:02;;;;;;;15.55;8.38;;;-3.50;99.90;;;;;;5012284;28;20050;-78
2021/01/17 04:29:28;;;;;;;20.38;10.52;;;-3.40;99.90;;;;;;5023468;28;20053;-78
2021/01/17 04:31:58;;;;;;;19.08;9.75;;;-3.50;99.90;;;;;;5027371;28;20049;-78
2021/01/17 04:34:25;;;;;;;19.88;10.23;;;-3.50;99.90;;;;;;5032474;28;20041;-78
2021/01/17 04:36:53;;;;;;;22.15;10.63;;;-3.40;99.90;;;;;;5036381;28;20081;-78
2021/01/17 04:39:24;;;;;;;24.23;10.57;;;-3.40;99.90;;;;;;5032106;28;20042;-78
2021/01/17 04:41:57;;;;;;;19.42;9.90;;;-3.40;99.90;;;;;;5005278;28;20065;-78
2021/01/17 04:44:35;;;;;;;21.42;9.93;;;-3.40;99.90;;;;;;5029334;28;20557;-78
2021/01/17 04:47:04;;;;;;;18.08;9.90;;;-3.40;99.90;;;;;;5014921;28;20049;-78
2021/01/17 04:49:40;;;;;;;18.58;9.27;;;-3.40;99.90;;;;;;5001274;28;20140;-78
2021/01/17 04:52:13;;;;;;;22.63;9.82;;;-3.40;99.90;;;;;;5011949;28;20053;-78
2021/01/17 04:54:41;;;;;;;18.23;9.18;;;-3.40;99.90;;;;;;5018837;28;20486;-78
2021/01/17 04:57:15;;;;;;;21.75;9.85;;;-3.40;99.90;;;;;;5033941;28;20049;-78
2021/01/17 05:00:06;;;;;;;24.73;10.07;;;-3.50;99.90;;;;;;5015712;28;20126;-78
2021/01/17 05:02:48;;;;;;;16.77;8.57;;;-3.50;99.90;;;;;;5016985;28;20482;-78
2021/01/17 05:05:23;;;;;;;17.08;7.82;;;-3.50;99.90;;;;;;5029363;28;20045;-78
2021/01/17 05:08:14;;;;;;;22.90;9.70;;;-3.50;99.90;;;;;;5030120;28;20486;-78
2021/01/17 05:10:46;;;;;;;16.10;7.32;;;-3.50;99.90;;;;;;5008374;28;20065;-78
2021/01/17 05:13:17;;;;;;;19.08;8.98;;;-3.40;99.90;;;;;;5012379;28;20072;-78
2021/01/17 05:15:44;;;;;;;15.60;8.45;;;-3.40;99.90;;;;;;5017797;28;20045;-78
2021/01/17 05:18:11;;;;;;;17.17;9.18;;;-3.30;99.90;;;;;;5031935;28;20042;-78
2021/01/17 05:20:38;;;;;;;16.25;8.65;;;-3.40;99.90;;;;;;5025142;28;20045;-79
2021/01/17 05:23:10;;;;;;;21.52;8.45;;;-3.40;99.90;;;;;;5032958;28;20053;-78
2021/01/17 05:25:37;;;;;;;13.50;7.15;;;-3.30;99.90;;;;;;5014927;28;20456;-78
2021/01/17 05:28:04;;;;;;;16.30;8.27;;;-3.30;99.90;;;;;;5000405;28;20054;-78
2021/01/17 05:30:32;;;;;;;16.25;7.43;;;-3.30;99.90;;;;;;5009786;28;20505;-78
2021/01/17 05:33:05;;;;;;;16.48;8.70;;;-3.20;99.90;;;;;;5013383;28;20471;-78
2021/01/17 05:35:32;;;;;;;14.77;7.43;;;-3.20;99.90;;;;;;5016257;28;20273;-78
2021/01/17 05:37:59;;;;;;;12.98;6.60;;;-3.10;99.90;;;;;;5016148;28;20049;-79
2021/01/17 05:40:32;;;;;;;17.70;7.38;;;-3.10;99.90;;;;;;5012218;28;20045;-79
2021/01/17 05:42:59;;;;;;;;;;;-3.10;99.90;;;;;;5011802;28;20364;-78
2021/01/17 05:45:25;;;;;;;17.83;6.13;;;-3.10;99.90;;;;;;5014103;28;19928;-78
2021/01/17 05:47:58;;;;;;;8.73;4.75;;;-3.10;99.90;;;;;;5015079;28;20060;-78
2021/01/17 05:50:27;;;;;;;17.15;7.30;;;-3.00;99.90;;;;;;5011938;28;20061;-78
2021/01/17 05:52:55;;;;;;;12.10;6.13;;;-3.00;99.90;;;;;;5011553;28;20415;-78
2021/01/17 05:55:49;;;;;;;14.85;6.40;;;-3.00;99.90;;;;;;5014184;28;20045;-78
2021/01/17 05:58:26;;;;;;;12.30;6.05;;;-2.90;99.90;;;;;;5010269;28;20060;-78
2021/01/17 06:00:58;;;;;;;14.50;5.97;;;-2.90;99.90;;;;;;5011462;28;20064;-78
2021/01/17 06:03:35;;;;;;;19.75;7.75;;;-2.90;99.90;;;;;;5013894;28;20074;-78
2021/01/17 06:06:05;;;;;;;17.75;7.78;;;-2.80;99.90;;;;;;5013550;28;20255;-78
2021/01/17 06:08:33;;;;;;;17.48;8.00;;;-2.80;99.90;;;;;;5011311;28;20052;-78
2021/01/17 06:11:11;;;;;;;22.77;10.20;;;-2.80;99.90;;;;;;5015238;28;20069;-78
2021/01/17 06:13:40;;;;;;;20.40;10.13;;;-2.80;99.90;;;;;;5013137;28;20058;-78
2021/01/17 06:16:36;;;;;;;15.43;8.02;;;-2.90;99.90;;;;;;5013034;28;20104;-78
2021/01/17 06:19:06;;;;;;;14.45;7.93;;;-2.90;99.90;;;;;;5016345;28;20061;-78
2021/01/17 06:21:34;;;;;;;18.20;9.18;;;-2.90;99.90;;;;;;5010891;28;20041;-78
2021/01/17 06:24:03;;;;;;;22.65;9.20;;;-2.80;99.90;;;;;;5021104;28;20550;-78
2021/01/17 06:26:31;;;;;;;17.13;8.63;;;-2.80;99.90;;;;;;5017391;28;20049;-78
2021/01/17 06:28:59;;;;;;;16.48;9.20;;;-2.80;99.90;;;;;;5001118;28;20399;-78
2021/01/17 06:31:30;;;;;;;20.70;9.43;;;-2.80;99.90;;;;;;5026924;28;20056;-78
2021/01/17 06:34:16;;;;;;;18.77;8.23;;;-2.80;99.90;;;;;;5003516;28;20657;-78
2021/01/17 06:36:48;;;;;;;17.73;6.28;;;-2.80;99.90;;;;;;5014833;28;20108;-78
2021/01/17 06:39:26;;;;;;;12.30;7.40;;;-2.80;99.90;;;;;;5029396;28;20055;-78
2021/01/17 06:41:55;;;;;;;13.27;6.47;;;-2.80;99.90;;;;;;5032010;28;20061;-78
2021/01/17 06:44:32;;;;;;;13.75;5.03;;;-2.90;99.90;;;;;;5013444;28;20054;-78
2021/01/17 06:46:59;;;;;;;11.52;4.30;;;-2.80;99.90;;;;;;5024065;28;20050;-78
2021/01/17 06:49:35;;;;;;;14.07;5.65;;;-2.70;99.90;;;;;;5035199;28;20049;-78
2021/01/17 06:52:03;;;;;;;9.73;5.38;;;-2.70;99.90;;;;;;5016070;28;20537;-78
2021/01/17 06:54:40;;;;;;;9.48;5.90;;;-2.70;99.90;;;;;;5023233;28;20064;-78
2021/01/17 06:57:08;;;;;;;7.75;4.38;;;-2.70;99.90;;;;;;5017934;28;20132;-78
2021/01/17 06:59:45;;;;;;;9.85;5.20;;;-2.70;99.90;;;;;;5016713;28;20053;-79
2021/01/17 07:05:03;;;;;;;12.02;4.82;;;-2.70;99.90;;;;;;5036349;28;20069;-78
2021/01/17 07:07:58;;;;;;;11.18;4.70;;;-2.70;99.90;;;;;;5026083;28;20061;-78
2021/01/17 07:10:25;;;;;;;12.05;6.25;;;-2.70;99.90;;;;;;5020333;28;20061;-78
2021/01/17 07:13:08;;;;;;;11.18;6.45;;;-2.70;99.90;;;;;;5019501;28;20045;-78
2021/01/17 07:15:40;;;;;;;16.23;7.90;;;-2.70;99.90;;;;;;5034820;28;20072;-78
2021/01/17 07:18:09;;;;;;;14.60;7.80;;;-2.70;99.90;;;;;;5034926;28;20103;-78
2021/01/17 07:20:39;;;;;;;11.10;6.55;;;-2.70;99.90;;;;;;5008902;28;20053;-78
2021/01/17 07:23:07;;;;;;;16.58;7.63;;;-2.70;99.90;;;;;;5015547;28;20057;-78
2021/01/17 07:25:36;;;;;;;20.60;9.68;;;-2.70;99.90;;;;;;5029805;28;20045;-78
2021/01/17 07:28:08;;;;;;;13.90;8.10;;;-2.60;99.90;;;;;;5014512;28;20414;-78
2021/01/17 07:30:45;;;;;;;17.15;6.90;;;-2.60;99.90;;;;;;5028710;28;20516;-78
2021/01/17 07:33:36;;;;;;;14.02;6.80;;;-2.60;99.90;;;;;;5036517;28;20463;-78
2021/01/17 07:36:06;;;;;;;62.05;27.13;;;-2.60;99.90;;;;;;5035684;28;20054;-78
2021/01/17 07:38:35;;;;;;;13.77;8.30;;;-2.60;99.90;;;;;;5016608;28;20053;-78
2021/01/17 07:41:03;;;;;;;12.05;6.20;;;-2.50;99.90;;;;;;5027769;28;20054;-78
2021/01/17 07:43:37;;;;;;;17.05;9.63;;;-2.50;99.90;;;;;;5029483;28;20050;-78
2021/01/17 07:46:13;;;;;;;15.85;7.78;;;-2.50;99.90;;;;;;5036287;28;20530;-78
2021/01/17 07:48:42;;;;;;;16.90;9.00;;;-2.50;99.90;;;;;;5032048;28;20049;-78
2021/01/17 07:51:11;;;;;;;11.88;6.82;;;-2.50;99.90;;;;;;5018937;28;20399;-78
2021/01/17 07:53:38;;;;;;;15.07;6.55;;;-2.50;99.90;;;;;;5010205;28;20054;-78
2021/01/17 07:56:27;;;;;;;15.90;7.10;;;-2.50;99.90;;;;;;5008695;28;20044;-78
2021/01/17 07:59:02;;;;;;;8.68;5.80;;;-2.50;99.90;;;;;;5036112;28;20053;-78
2021/01/17 08:01:32;;;;;;;15.85;7.88;;;-2.50;99.90;;;;;;5030765;28;20060;-78
2021/01/17 08:04:14;;;;;;;22.33;7.93;;;-2.50;99.90;;;;;;5015993;28;20076;-78
2021/01/17 08:06:40;;;;;;;17.88;8.55;;;-2.50;99.90;;;;;;5034394;28;20479;-78
2021/01/17 08:09:13;;;;;;;14.38;8.63;;;-2.40;99.90;;;;;;5014011;28;20054;-78
2021/01/17 08:11:43;;;;;;;17.38;9.90;;;-2.30;99.90;;;;;;5036099;28;20045;-78
2021/01/17 08:14:22;;;;;;;18.23;9.63;;;-2.30;99.90;;;;;;5030252;28;20777;-78
2021/01/17 08:17:16;;;;;;;21.98;11.27;;;-2.30;99.90;;;;;;4999076;28;20053;-78
2021/01/17 08:19:43;;;;;;;27.55;13.48;;;-2.30;99.90;;;;;;5029718;28;20061;-79
2021/01/17 08:22:22;;;;;;;19.75;10.10;;;-2.30;99.90;;;;;;5024861;28;20050;-78
2021/01/17 08:24:50;;;;;;;14.70;8.43;;;-2.20;99.90;;;;;;5033776;28;20060;-78
2021/01/17 08:30:07;;;;;;;14.27;7.90;;;-2.30;99.90;;;;;;5032291;28;20045;-78
2021/01/17 08:32:44;;;;;;;14.05;7.45;;;-2.30;99.90;;;;;;5033538;28;20099;-78
2021/01/17 08:37:47;;;;;;;13.60;7.50;;;-2.20;99.90;;;;;;5017240;28;20052;-78
2021/01/17 08:40:28;;;;;;;14.75;8.05;;;-2.20;99.90;;;;;;5011854;28;20053;-79
2021/01/17 08:42:59;;;;;;;21.70;11.93;;;-2.20;99.90;;;;;;5005351;28;20050;-79
2021/01/17 08:45:28;;;;;;;20.75;11.73;;;-2.10;99.90;;;;;;5025297;28;20120;-78
2021/01/17 08:48:01;;;;;;;22.95;11.18;;;-2.20;99.90;;;;;;5029627;28;20057;-78
2021/01/17 08:50:37;;;;;;;20.95;10.98;;;-2.10;99.90;;;;;;5033587;28;20052;-78
2021/01/17 08:53:11;;;;;;;20.75;12.55;;;-2.20;99.90;;;;;;5030889;28;20041;-78
2021/01/17 08:55:48;;;;;;;31.50;17.92;;;-2.10;99.90;;;;;;5016944;28;20060;-78
2021/01/17 08:58:36;;;;;;;26.40;14.05;;;-2.10;99.90;;;;;;5016613;28;20053;-79
2021/01/17 09:01:07;;;;;;;23.15;12.90;;;-2.10;99.90;;;;;;5012597;28;20057;-79
2021/01/17 09:03:42;;;;;;;38.88;12.55;;;-2.20;99.90;;;;;;5021539;28;20053;-78
2021/01/17 09:06:12;;;;;;;29.73;13.07;;;-2.10;99.90;;;;;;5012148;28;20439;-79
2021/01/17 09:08:48;;;;;;;25.88;14.27;;;-2.10;99.90;;;;;;5032539;28;20413;-78
2021/01/17 09:11:39;;;;;;;30.38;16.00;;;-2.00;99.90;;;;;;5031151;28;20060;-78
2021/01/17 09:14:24;;;;;;;30.92;16.23;;;-2.00;99.90;;;;;;5031115;28;21521;-78
2021/01/17 09:16:54;;;;;;;19.20;10.30;;;-2.00;99.90;;;;;;5008134;28;20049;-78
2021/01/17 09:19:29;;;;;;;29.30;14.43;;;-2.00;99.90;;;;;;5027183;28;20053;-78
2021/01/17 09:21:58;;;;;;;26.23;14.07;;;-2.00;99.90;;;;;;5017688;28;20051;-78
2021/01/17 09:24:28;;;;;;;18.55;9.00;;;-2.00;99.90;;;;;;5015840;28;20071;-78
2021/01/17 09:27:02;;;;;;;14.70;9.38;;;-2.00;99.90;;;;;;5033101;28;20124;-78
2021/01/17 09:29:39;;;;;;;9.90;4.55;;;-2.00;99.90;;;;;;5016522;28;20525;-78
2021/01/17 09:32:16;;;;;;;7.78;5.03;;;-2.00;99.90;;;;;;5026791;28;20046;-78
2021/01/17 09:34:47;;;;;;;9.00;4.03;;;-2.00;99.90;;;;;;5005595;28;20041;-78
2021/01/17 09:37:19;;;;;;;3.17;2.38;;;-2.00;99.90;;;;;;5003561;28;20052;-78
2021/01/17 09:39:47;;;;;;;6.50;3.17;;;-1.90;99.90;;;;;;5007953;28;20049;-79
2021/01/17 09:42:15;;;;;;;5.20;1.77;;;-1.90;99.90;;;;;;5014707;28;20041;-78
2021/01/17 09:44:50;;;;;;;3.13;1.65;;;-1.80;99.90;;;;;;5028746;28;20049;-78
2021/01/17 09:47:19;;;;;;;9.07;4.40;;;-1.70;99.90;;;;;;5000669;28;20045;-78
2021/01/17 09:49:47;;;;;;;4.43;3.00;;;-1.60;99.90;;;;;;5014758;28;20733;-78
2021/01/17 09:52:18;;;;;;;3.53;1.63;;;-1.60;99.90;;;;;;5011232;28;20124;-78
2021/01/17 09:54:46;;;;;;;4.97;2.53;;;-1.60;99.90;;;;;;5015895;28;20061;-78
2021/01/17 09:57:36;;;;;;;8.48;4.72;;;-1.50;99.90;;;;;;5014119;28;20372;-78
2021/01/17 10:00:07;;;;;;;14.38;7.20;;;-1.40;99.90;;;;;;4998027;28;20064;-78
2021/01/17 10:02:36;;;;;;;12.85;6.88;;;-1.40;99.90;;;;;;5020110;28;20494;-78
2021/01/17 10:05:03;;;;;;;10.30;5.10;;;-1.40;99.90;;;;;;5004730;28;20099;-78
2021/01/17 10:07:31;;;;;;;10.90;5.80;;;-1.40;99.90;;;;;;5025010;28;20053;-78
2021/01/17 10:09:58;;;;;;;12.60;6.32;;;-1.30;99.90;;;;;;5011754;28;20405;-78
2021/01/17 10:12:24;;;;;;;10.63;4.40;;;-1.20;99.90;;;;;;5016377;28;20479;-78
2021/01/17 10:14:52;;;;;;;7.18;4.13;;;-1.20;99.90;;;;;;5014777;28;20075;-78
2021/01/17 10:17:20;;;;;;;4.70;3.17;;;-1.20;99.90;;;;;;5030568;28;20129;-78
2021/01/17 10:19:47;;;;;;;8.73;5.00;;;-1.20;99.90;;;;;;5027324;28;20076;-78
2021/01/17 10:22:16;;;;;;;5.05;2.75;;;-1.30;99.90;;;;;;5011829;28;20049;-78
2021/01/17 10:24:43;;;;;;;15.50;6.00;;;-1.20;99.90;;;;;;5015331;28;20056;-78
2021/01/17 10:27:12;;;;;;;7.75;5.68;;;-1.10;99.90;;;;;;5027944;28;20072;-78
2021/01/17 10:29:41;;;;;;;9.93;4.78;;;-1.00;99.90;;;;;;5018392;28;20049;-78
2021/01/17 10:32:10;;;;;;;5.05;2.08;;;-1.00;99.90;;;;;;5025842;28;20112;-78
2021/01/17 10:34:47;;;;;;;2.38;1.25;;;-1.00;99.90;;;;;;5003890;28;20062;-79
2021/01/17 10:37:18;;;;;;;8.85;1.98;;;-0.90;99.90;;;;;;5028971;28;20049;-78
2021/01/17 10:39:57;;;;;;;3.92;2.45;;;-0.90;99.90;;;;;;5028336;28;20421;-78
2021/01/17 10:42:24;;;;;;;4.97;2.40;;;-0.90;99.90;;;;;;5036095;28;20050;-78
2021/01/17 10:44:50;;;;;;;3.92;2.92;;;-1.00;99.90;;;;;;5029655;28;20790;-78
2021/01/17 10:47:32;;;;;;;4.80;2.65;;;-0.90;99.90;;;;;;5027180;28;20042;-78
2021/01/17 10:50:05;;;;;;;3.80;2.65;;;-0.90;99.90;;;;;;5009980;28;20044;-79
2021/01/17 10:52:33;;;;;;;;;;;-0.80;99.90;;;;;;5009149;28;20045;-78
2021/01/17 10:55:03;;;;;;;3.70;2.83;;;-0.80;99.90;;;;;;5008539;28;19921;-78
2021/01/17 10:57:31;;;;;;;18.25;8.25;;;-0.80;99.90;;;;;;5027083;28;20058;-78
2021/01/17 11:00:04;;;;;;;16.33;9.80;;;-0.70;99.90;;;;;;5027936;28;20324;-78
2021/01/17 11:02:31;;;;;;;10.05;5.28;;;-0.70;99.90;;;;;;5008110;28;20051;-78
2021/01/17 11:04:57;;;;;;;4.15;2.20;;;-0.70;99.90;;;;;;5007361;28;20053;-78
2021/01/17 11:07:28;;;;;;;30.88;16.95;;;-0.70;99.90;;;;;;5028734;28;20045;-78
2021/01/17 11:09:55;;;;;;;7.00;3.63;;;-0.70;99.90;;;;;;5027774;28;20068;-78
2021/01/17 11:12:39;;;;;;;5.90;3.83;;;-0.60;99.90;;;;;;5029229;28;20053;-78
2021/01/17 11:15:12;;;;;;;7.90;2.38;;;-0.60;99.90;;;;;;5012108;28;20053;-78
2021/01/17 11:17:53;;;;;;;39.72;16.92;;;-0.60;99.90;;;;;;5003416;28;20483;-78
2021/01/17 11:20:31;;;;;;;17.65;6.90;;;-0.60;99.90;;;;;;5028062;28;20077;-78
2021/01/17 11:23:06;;;;;;;37.28;19.25;;;-0.60;99.90;;;;;;5028977;28;20053;-78
2021/01/17 11:25:34;;;;;;;19.52;9.10;;;-0.60;99.90;;;;;;5027427;28;20056;-78
2021/01/17 11:28:03;;;;;;;4.88;3.53;;;-0.50;99.90;;;;;;5024332;28;20052;-78
2021/01/17 11:30:32;;;;;;;2.85;2.17;;;-0.50;99.90;;;;;;5026854;28;20055;-78
2021/01/17 11:33:10;;;;;;;7.57;4.15;;;-0.50;99.90;;;;;;5027231;28;20049;-78
2021/01/17 11:35:39;;;;;;;7.70;4.18;;;-0.40;99.90;;;;;;5025133;28;20057;-78
2021/01/17 11:38:07;;;;;;;9.05;4.00;;;-0.40;99.90;;;;;;5031045;28;20041;-78
2021/01/17 11:40:35;;;;;;;3.60;1.58;;;-0.40;99.90;;;;;;5030408;28;20095;-78
2021/01/17 11:43:11;;;;;;;4.10;1.75;;;-0.40;99.90;;;;;;5013898;28;20459;-78
2021/01/17 11:45:43;;;;;;;2.55;1.67;;;-0.40;99.90;;;;;;5032104;28;20712;-78
2021/01/17 11:48:11;;;;;;;5.95;3.20;;;-0.40;99.90;;;;;;5024562;28;20041;-79
2021/01/17 11:50:44;;;;;;;4.80;1.83;;;-0.40;99.90;;;;;;5010651;28;20052;-79
2021/01/17 11:53:11;;;;;;;4.90;2.17;;;-0.30;99.90;;;;;;5012537;28;20056;-79
2021/01/17 11:55:38;;;;;;;6.40;2.88;;;-0.30;99.90;;;;;;5015718;28;20053;-78
2021/01/17 11:58:16;;;;;;;2.67;1.75;;;-0.30;99.90;;;;;;5014514;28;20061;-78
2021/01/17 12:00:57;;;;;;;5.18;2.20;;;-0.30;99.90;;;;;;5003603;28;20489;-78
2021/01/17 12:03:40;;;;;;;3.15;2.00;;;-0.30;99.90;;;;;;5026814;28;20116;-78
2021/01/17 12:06:18;;;;;;;10.50;3.08;;;-0.20;99.90;;;;;;5029600;28;20049;-79
2021/01/17 12:09:05;;;;;;;9.40;4.47;;;-0.20;99.90;;;;;;5031319;28;20493;-79
2021/01/17 12:11:47;;;;;;;7.13;4.35;;;-0.20;99.90;;;;;;5030691;28;20086;-78
2021/01/17 12:14:25;;;;;;;12.50;4.82;;;-0.20;99.90;;;;;;5022891;28;20049;-78
2021/01/17 12:16:56;;;;;;;4.78;2.65;;;-0.20;99.90;;;;;;5010444;28;20049;-78
2021/01/17 12:19:25;;;;;;;13.77;6.93;;;-0.10;99.90;;;;;;5027001;28;20053;-78
2021/01/17 12:21:56;;;;;;;35.47;12.73;;;-0.10;99.90;;;;;;5022577;28;20172;-78
2021/01/17 12:24:24;;;;;;;10.45;4.90;;;-0.10;99.90;;;;;;5009397;28;20056;-78
2021/01/17 12:26:51;;;;;;;10.07;3.90;;;-0.10;99.90;;;;;;5013885;28;20042;-78
2021/01/17 12:29:19;;;;;;;8.02;3.70;;;-0.10;99.90;;;;;;5015136;28;20061;-79
2021/01/17 12:31:49;;;;;;;10.75;4.65;;;-0.10;99.90;;;;;;5029636;28;20050;-78
2021/01/17 12:34:17;;;;;;;6.45;3.58;;;-0.10;99.90;;;;;;5016772;28;20068;-78
2021/01/17 12:36:44;;;;;;;8.75;3.63;;;-0.10;99.90;;;;;;5029040;28;20445;-78
2021/01/17 12:39:12;;;;;;;8.00;3.72;;;0.00;99.90;;;;;;5010606;28;20045;-79
2021/01/17 12:41:45;;;;;;;22.38;9.98;;;0.00;99.90;;;;;;5028401;28;20048;-78
2021/01/17 12:44:16;;;;;;;57.58;24.02;;;0.00;99.90;;;;;;5033858;28;20411;-79
2021/01/17 12:46:44;;;;;;;31.42;16.63;;;0.00;99.90;;;;;;5017160;28;20056;-79
2021/01/17 12:49:16;;;;;;;28.23;14.38;;;0.00;99.90;;;;;;5032305;28;20042;-78
2021/01/17 12:51:43;;;;;;;21.83;10.48;;;0.00;99.90;;;;;;5030812;28;20509;-78
2021/01/17 12:54:10;;;;;;;19.80;9.57;;;0.10;99.90;;;;;;5031494;28;20048;-78
2021/01/17 12:56:36;;;;;;;16.75;6.63;;;0.10;99.90;;;;;;5034746;28;20731;-78
2021/01/17 12:59:03;;;;;;;23.60;12.48;;;0.10;99.90;;;;;;5030322;28;20127;-79
2021/01/17 13:01:30;;;;;;;53.90;24.23;;;0.10;99.90;;;;;;5015639;28;20053;-78
2021/01/17 13:03:57;;;;;;;32.83;13.63;;;0.20;99.90;;;;;;5029491;28;20045;-78